sensor_id;sensor_type;location;lat;lon;timestamp;pressure;altitude;pressure_sealevel;temperature;humidity
62697;BME280;48761;42.680;23.312;2023-03-01T00:01:28;95323.34;;;5.19;92.43
62697;BME280;48761;42.680;23.312;2023-03-01T00:03:54;95327.56;;;5.23;92.15
62697;BME280;48761;42.680;23.312;2023-03-01T00:06:22;95317.88;;;5.24;92.26
62697;BME280;48761;42.680;23.312;2023-03-01T00:08:48;95316.03;;;5.26;91.98
62697;BME280;48761;42.680;23.312;2023-03-01T00:11:29;95276.53;;;5.03;92.09
62697;BME280;48761;42.680;23.312;2023-03-01T00:13:59;95298.38;;;5.07;92.05
62697;BME280;48761;42.680;23.312;2023-03-01T00:16:33;95286.97;;;5.07;92.26
62697;BME280;48761;42.680;23.312;2023-03-01T00:19:03;95288.41;;;5.14;91.78
62697;BME280;48761;42.680;23.312;2023-03-01T00:21:29;95266.66;;;5.09;91.59
62697;BME280;48761;42.680;23.312;2023-03-01T00:23:55;95300.28;;;5.24;91.75
62697;BME280;48761;42.680;23.312;2023-03-01T00:26:25;95283.53;;;5.04;92.11
62697;BME280;48761;42.680;23.312;2023-03-01T00:29:03;95271.88;;;5.10;91.59
62697;BME280;48761;42.680;23.312;2023-03-01T00:31:47;95257.09;;;5.06;91.99
62697;BME280;48761;42.680;23.312;2023-03-01T00:34:13;95293.81;;;5.11;91.79
62697;BME280;48761;42.680;23.312;2023-03-01T00:36:39;95288.94;;;5.01;92.35
62697;BME280;48761;42.680;23.312;2023-03-01T00:39:09;95269.81;;;4.96;92.52
62697;BME280;48761;42.680;23.312;2023-03-01T00:41:36;95276.31;;;5.10;92.29
62697;BME280;48761;42.680;23.312;2023-03-01T00:44:02;95266.97;;;5.01;92.11
62697;BME280;48761;42.680;23.312;2023-03-01T00:46:28;95272.69;;;5.12;91.85
62697;BME280;48761;42.680;23.312;2023-03-01T00:48:54;95275.81;;;5.00;91.90
62697;BME280;48761;42.680;23.312;2023-03-01T00:51:25;95204.50;;;4.61;91.92
62697;BME280;48761;42.680;23.312;2023-03-01T00:53:53;95265.78;;;4.87;92.75
62697;BME280;48761;42.680;23.312;2023-03-01T00:56:20;95264.94;;;4.87;92.07
62697;BME280;48761;42.680;23.312;2023-03-01T00:58:46;95266.09;;;4.79;92.28
62697;BME280;48761;42.680;23.312;2023-03-01T01:01:21;95272.63;;;4.91;92.62
62697;BME280;48761;42.680;23.312;2023-03-01T01:03:50;95268.13;;;4.95;92.14
62697;BME280;48761;42.680;23.312;2023-03-01T01:06:25;95268.47;;;4.86;92.46
62697;BME280;48761;42.680;23.312;2023-03-01T01:08:55;95203.44;;;4.43;92.45
62697;BME280;48761;42.680;23.312;2023-03-01T01:11:29;95271.94;;;4.88;92.44
62697;BME280;48761;42.680;23.312;2023-03-01T01:13:56;95263.28;;;4.84;92.56
62697;BME280;48761;42.680;23.312;2023-03-01T01:16:24;95268.47;;;4.86;92.64
62697;BME280;48761;42.680;23.312;2023-03-01T01:18:51;95267.00;;;4.78;92.69
62697;BME280;48761;42.680;23.312;2023-03-01T01:21:22;95259.97;;;4.79;92.63
62697;BME280;48761;42.680;23.312;2023-03-01T01:23:49;95253.91;;;4.77;92.64
62697;BME280;48761;42.680;23.312;2023-03-01T01:26:20;95252.25;;;4.74;92.67
62697;BME280;48761;42.680;23.312;2023-03-01T01:28:47;95264.56;;;4.74;92.28
62697;BME280;48761;42.680;23.312;2023-03-01T01:31:13;95258.56;;;4.70;92.21
62697;BME280;48761;42.680;23.312;2023-03-01T01:33:39;95263.50;;;4.78;91.52
62697;BME280;48761;42.680;23.312;2023-03-01T01:36:06;95266.22;;;4.76;91.94
62697;BME280;48761;42.680;23.312;2023-03-01T01:38:33;95239.97;;;4.52;91.42
62697;BME280;48761;42.680;23.312;2023-03-01T01:41:02;95243.50;;;4.51;91.43
62697;BME280;48761;42.680;23.312;2023-03-01T01:43:40;95290.72;;;4.78;91.05
62697;BME280;48761;42.680;23.312;2023-03-01T01:46:21;95251.81;;;4.63;90.79
62697;BME280;48761;42.680;23.312;2023-03-01T01:49:01;95235.69;;;4.50;90.48
62697;BME280;48761;42.680;23.312;2023-03-01T01:51:31;95211.53;;;4.38;90.33
62697;BME280;48761;42.680;23.312;2023-03-01T01:54:00;95263.97;;;4.67;90.33
62697;BME280;48761;42.680;23.312;2023-03-01T01:56:28;95256.00;;;4.68;90.39
62697;BME280;48761;42.680;23.312;2023-03-01T01:58:55;95267.00;;;4.78;90.11
62697;BME280;48761;42.680;23.312;2023-03-01T02:01:21;95264.25;;;4.81;89.97
62697;BME280;48761;42.680;23.312;2023-03-01T02:03:48;95264.19;;;4.83;90.03
62697;BME280;48761;42.680;23.312;2023-03-01T02:08:47;95254.38;;;4.87;89.52
62697;BME280;48761;42.680;23.312;2023-03-01T02:11:14;95242.13;;;4.86;88.93
62697;BME280;48761;42.680;23.312;2023-03-01T02:13:41;95242.19;;;4.84;88.79
62697;BME280;48761;42.680;23.312;2023-03-01T02:16:10;95219.75;;;4.75;88.77
62697;BME280;48761;42.680;23.312;2023-03-01T02:18:38;95243.00;;;4.86;88.60
62697;BME280;48761;42.680;23.312;2023-03-01T02:21:30;95249.00;;;4.90;88.11
62697;BME280;48761;42.680;23.312;2023-03-01T02:24:05;95258.31;;;4.76;88.32
62697;BME280;48761;42.680;23.312;2023-03-01T02:26:45;95233.81;;;4.74;88.57
62697;BME280;48761;42.680;23.312;2023-03-01T02:29:12;95232.41;;;4.65;88.34
62697;BME280;48761;42.680;23.312;2023-03-01T02:31:38;95247.91;;;4.73;88.58
62697;BME280;48761;42.680;23.312;2023-03-01T02:34:06;95262.41;;;4.84;88.74
62697;BME280;48761;42.680;23.312;2023-03-01T02:36:37;95260.88;;;4.78;88.71
62697;BME280;48761;42.680;23.312;2023-03-01T02:39:07;95268.66;;;4.81;88.72
62697;BME280;48761;42.680;23.312;2023-03-01T02:41:37;95256.63;;;4.75;89.18
62697;BME280;48761;42.680;23.312;2023-03-01T02:44:05;95266.41;;;4.71;89.35
62697;BME280;48761;42.680;23.312;2023-03-01T02:46:31;95259.97;;;4.79;89.43
62697;BME280;48761;42.680;23.312;2023-03-01T02:48:58;95232.78;;;4.56;89.58
62697;BME280;48761;42.680;23.312;2023-03-01T02:51:38;95261.75;;;4.78;89.65
62697;BME280;48761;42.680;23.312;2023-03-01T02:54:44;95254.09;;;4.72;90.05
62697;BME280;48761;42.680;23.312;2023-03-01T02:57:12;95242.22;;;4.62;89.93
62697;BME280;48761;42.680;23.312;2023-03-01T02:59:39;95256.84;;;4.69;90.78
62697;BME280;48761;42.680;23.312;2023-03-01T03:02:07;95257.75;;;4.68;90.15
62697;BME280;48761;42.680;23.312;2023-03-01T03:04:33;95232.59;;;4.60;90.29
62697;BME280;48761;42.680;23.312;2023-03-01T03:06:59;95257.72;;;4.69;90.11
62697;BME280;48761;42.680;23.312;2023-03-01T03:09:25;95267.75;;;4.59;90.41
62697;BME280;48761;42.680;23.312;2023-03-01T03:11:51;95225.34;;;4.45;90.72
62697;BME280;48761;42.680;23.312;2023-03-01T03:14:17;95262.34;;;4.63;90.85
62697;BME280;48761;42.680;23.312;2023-03-01T03:16:48;95264.06;;;4.64;90.57
62697;BME280;48761;42.680;23.312;2023-03-01T03:19:15;95242.34;;;4.58;90.60
62697;BME280;48761;42.680;23.312;2023-03-01T03:21:41;95254.72;;;4.56;90.37
62697;BME280;48761;42.680;23.312;2023-03-01T03:24:08;95272.66;;;4.69;90.60
62697;BME280;48761;42.680;23.312;2023-03-01T03:26:34;95262.50;;;4.59;91.27
62697;BME280;48761;42.680;23.312;2023-03-01T03:29:00;95258.94;;;4.60;90.99
62697;BME280;48761;42.680;23.312;2023-03-01T03:31:26;95266.03;;;4.58;90.80
62697;BME280;48761;42.680;23.312;2023-03-01T03:33:52;95273.81;;;4.62;91.26
62697;BME280;48761;42.680;23.312;2023-03-01T03:36:20;95275.69;;;4.58;91.13
62697;BME280;48761;42.680;23.312;2023-03-01T03:38:46;95271.31;;;4.58;91.07
62697;BME280;48761;42.680;23.312;2023-03-01T03:41:12;95280.38;;;4.51;90.89
62697;BME280;48761;42.680;23.312;2023-03-01T03:43:40;95271.19;;;4.62;90.67
62697;BME280;48761;42.680;23.312;2023-03-01T03:46:06;95233.69;;;4.32;90.61
62697;BME280;48761;42.680;23.312;2023-03-01T03:48:41;95266.41;;;4.49;91.09
62697;BME280;48761;42.680;23.312;2023-03-01T03:51:10;95272.16;;;4.36;91.21
62697;BME280;48761;42.680;23.312;2023-03-01T03:53:36;95279.56;;;4.49;91.15
62697;BME280;48761;42.680;23.312;2023-03-01T03:56:03;95272.34;;;4.32;90.93
62697;BME280;48761;42.680;23.312;2023-03-01T03:58:28;95274.88;;;4.57;90.47
62697;BME280;48761;42.680;23.312;2023-03-01T04:00:56;95282.59;;;4.62;90.58
62697;BME280;48761;42.680;23.312;2023-03-01T04:03:23;95269.72;;;4.54;90.79
62697;BME280;48761;42.680;23.312;2023-03-01T04:05:50;95277.50;;;4.57;91.01
62697;BME280;48761;42.680;23.312;2023-03-01T04:08:18;95282.09;;;4.52;91.13
62697;BME280;48761;42.680;23.312;2023-03-01T04:10:46;95274.78;;;4.36;91.38
62697;BME280;48761;42.680;23.312;2023-03-01T04:13:16;95279.94;;;4.40;91.32
62697;BME280;48761;42.680;23.312;2023-03-01T04:15:43;95267.59;;;4.40;91.28
62697;BME280;48761;42.680;23.312;2023-03-01T04:18:12;95282.09;;;4.52;91.14
62697;BME280;48761;42.680;23.312;2023-03-01T04:20:38;95276.16;;;4.47;91.26
62697;BME280;48761;42.680;23.312;2023-03-01T04:23:08;95277.16;;;4.43;91.48
62697;BME280;48761;42.680;23.312;2023-03-01T04:25:34;95258.53;;;4.25;91.48
62697;BME280;48761;42.680;23.312;2023-03-01T04:28:00;95280.09;;;4.35;92.33
62697;BME280;48761;42.680;23.312;2023-03-01T04:30:26;95274.41;;;4.23;92.08
62697;BME280;48761;42.680;23.312;2023-03-01T04:32:52;95298.69;;;4.30;92.88
62697;BME280;48761;42.680;23.312;2023-03-01T04:35:18;95288.16;;;4.30;92.62
62697;BME280;48761;42.680;23.312;2023-03-01T04:37:44;95278.44;;;4.32;92.58
62697;BME280;48761;42.680;23.312;2023-03-01T04:40:11;95255.09;;;4.23;92.87
62697;BME280;48761;42.680;23.312;2023-03-01T04:42:36;95272.50;;;4.27;92.68
62697;BME280;48761;42.680;23.312;2023-03-01T04:45:03;95286.22;;;4.35;92.66
62697;BME280;48761;42.680;23.312;2023-03-01T04:47:29;95268.94;;;4.28;92.58
62697;BME280;48761;42.680;23.312;2023-03-01T04:49:55;95255.09;;;4.23;92.56
62697;BME280;48761;42.680;23.312;2023-03-01T04:52:21;95262.81;;;4.28;92.15
62697;BME280;48761;42.680;23.312;2023-03-01T04:54:47;95266.13;;;4.33;92.52
62697;BME280;48761;42.680;23.312;2023-03-01T04:57:13;95270.69;;;4.29;92.93
62697;BME280;48761;42.680;23.312;2023-03-01T04:59:39;95260.38;;;4.23;92.72
62697;BME280;48761;42.680;23.312;2023-03-01T05:02:05;95241.41;;;4.14;93.07
62697;BME280;48761;42.680;23.312;2023-03-01T05:04:32;95265.75;;;4.20;92.57
62697;BME280;48761;42.680;23.312;2023-03-01T05:06:58;95254.78;;;4.08;93.10
62697;BME280;48761;42.680;23.312;2023-03-01T05:09:24;95271.25;;;4.13;92.82
62697;BME280;48761;42.680;23.312;2023-03-01T05:11:50;95283.44;;;4.16;93.13
62697;BME280;48761;42.680;23.312;2023-03-01T05:14:16;95239.25;;;4.02;92.91
62697;BME280;48761;42.680;23.312;2023-03-01T05:16:42;95274.09;;;4.31;92.97
62697;BME280;48761;42.680;23.312;2023-03-01T05:19:08;95211.69;;;3.88;92.46
62697;BME280;48761;42.680;23.312;2023-03-01T05:21:34;95287.16;;;4.34;92.34
62697;BME280;48761;42.680;23.312;2023-03-01T05:24:01;95220.28;;;3.92;92.21
62697;BME280;48761;42.680;23.312;2023-03-01T05:26:27;95282.69;;;4.36;92.29
62697;BME280;48761;42.680;23.312;2023-03-01T05:28:55;95276.63;;;4.34;92.31
62697;BME280;48761;42.680;23.312;2023-03-01T05:31:21;95279.00;;;4.41;92.53
62697;BME280;48761;42.680;23.312;2023-03-01T05:33:48;95251.47;;;4.27;92.46
62697;BME280;48761;42.680;23.312;2023-03-01T05:36:14;95262.09;;;4.24;92.62
62697;BME280;48761;42.680;23.312;2023-03-01T05:38:40;95275.47;;;4.42;92.54
62697;BME280;48761;42.680;23.312;2023-03-01T05:41:14;95276.47;;;4.37;92.23
62697;BME280;48761;42.680;23.312;2023-03-01T05:43:40;95280.94;;;4.35;92.65
62697;BME280;48761;42.680;23.312;2023-03-01T05:46:07;95280.84;;;4.39;92.25
62697;BME280;48761;42.680;23.312;2023-03-01T05:48:32;95272.88;;;4.40;91.59
62697;BME280;48761;42.680;23.312;2023-03-01T05:51:00;95280.63;;;4.45;91.32
62697;BME280;48761;42.680;23.312;2023-03-01T05:53:26;95265.91;;;4.39;91.78
62697;BME280;48761;42.680;23.312;2023-03-01T05:56:09;95245.25;;;4.28;91.65
62697;BME280;48761;42.680;23.312;2023-03-01T05:58:35;95267.91;;;4.32;91.22
62697;BME280;48761;42.680;23.312;2023-03-01T06:01:03;95229.50;;;4.04;91.40
62697;BME280;48761;42.680;23.312;2023-03-01T06:03:32;95252.75;;;4.15;91.69
62697;BME280;48761;42.680;23.312;2023-03-01T06:05:58;95278.91;;;4.20;91.70
62697;BME280;48761;42.680;23.312;2023-03-01T06:08:24;95266.06;;;4.12;91.58
62697;BME280;48761;42.680;23.312;2023-03-01T06:10:51;95264.41;;;4.09;91.97
62697;BME280;48761;42.680;23.312;2023-03-01T06:13:17;95306.59;;;4.30;91.91
62697;BME280;48761;42.680;23.312;2023-03-01T06:15:45;95264.16;;;4.15;91.29
62697;BME280;48761;42.680;23.312;2023-03-01T06:18:12;95288.41;;;4.24;91.40
62697;BME280;48761;42.680;23.312;2023-03-01T06:20:41;95330.78;;;4.40;91.99
62697;BME280;48761;42.680;23.312;2023-03-01T06:23:09;95331.75;;;4.37;91.82
62697;BME280;48761;42.680;23.312;2023-03-01T06:25:35;95287.78;;;4.17;92.22
62697;BME280;48761;42.680;23.312;2023-03-01T06:28:01;95315.81;;;4.42;91.62
62697;BME280;48761;42.680;23.312;2023-03-01T06:30:27;95317.59;;;4.42;91.55
62697;BME280;48761;42.680;23.312;2023-03-01T06:32:53;95311.06;;;4.28;92.08
62697;BME280;48761;42.680;23.312;2023-03-01T06:35:19;95320.09;;;4.21;92.85
62697;BME280;48761;42.680;23.312;2023-03-01T06:37:47;95318.97;;;4.28;92.93
62697;BME280;48761;42.680;23.312;2023-03-01T06:40:14;95318.09;;;4.28;92.43
62697;BME280;48761;42.680;23.312;2023-03-01T06:42:43;95318.28;;;4.23;92.76
62697;BME280;48761;42.680;23.312;2023-03-01T06:45:10;95323.19;;;4.32;92.85
62697;BME280;48761;42.680;23.312;2023-03-01T06:47:36;95264.88;;;3.97;92.53
62697;BME280;48761;42.680;23.312;2023-03-01T06:50:03;95319.66;;;4.33;92.27
62697;BME280;48761;42.680;23.312;2023-03-01T06:52:29;95328.13;;;4.42;92.35
62697;BME280;48761;42.680;23.312;2023-03-01T06:54:55;95321.09;;;4.42;91.95
62697;BME280;48761;42.680;23.312;2023-03-01T06:57:21;95297.03;;;4.28;91.71
62697;BME280;48761;42.680;23.312;2023-03-01T06:59:47;95296.31;;;4.24;91.89
62697;BME280;48761;42.680;23.312;2023-03-01T07:02:14;95281.44;;;4.23;91.94
62697;BME280;48761;42.680;23.312;2023-03-01T07:04:41;95335.84;;;4.46;91.86
62697;BME280;48761;42.680;23.312;2023-03-01T07:07:07;95321.81;;;4.46;91.38
62697;BME280;48761;42.680;23.312;2023-03-01T07:09:33;95329.50;;;4.52;90.96
62697;BME280;48761;42.680;23.312;2023-03-01T07:11:59;95309.03;;;4.35;91.33
62697;BME280;48761;42.680;23.312;2023-03-01T07:14:25;95321.50;;;4.54;91.02
62697;BME280;48761;42.680;23.312;2023-03-01T07:16:52;95319.19;;;4.46;91.23
62697;BME280;48761;42.680;23.312;2023-03-01T07:19:18;95305.34;;;4.41;90.99
62697;BME280;48761;42.680;23.312;2023-03-01T07:21:44;95288.16;;;4.30;90.55
62697;BME280;48761;42.680;23.312;2023-03-01T07:24:10;95319.28;;;4.43;90.76
62697;BME280;48761;42.680;23.312;2023-03-01T07:26:37;95317.34;;;4.48;90.90
62697;BME280;48761;42.680;23.312;2023-03-01T07:29:05;95316.16;;;4.57;90.16
62697;BME280;48761;42.680;23.312;2023-03-01T07:31:31;95297.63;;;4.58;90.22
62697;BME280;48761;42.680;23.312;2023-03-01T07:33:58;95295.38;;;4.49;90.09
62697;BME280;48761;42.680;23.312;2023-03-01T07:36:24;95322.78;;;4.67;90.14
62697;BME280;48761;42.680;23.312;2023-03-01T07:38:50;95276.69;;;4.55;89.75
62697;BME280;48761;42.680;23.312;2023-03-01T07:41:17;95270.09;;;4.45;89.61
62697;BME280;48761;42.680;23.312;2023-03-01T07:43:43;95307.69;;;4.71;89.38
62697;BME280;48761;42.680;23.312;2023-03-01T07:46:10;95304.63;;;4.59;89.68
62697;BME280;48761;42.680;23.312;2023-03-01T07:48:36;95299.75;;;4.73;89.47
62697;BME280;48761;42.680;23.312;2023-03-01T07:51:04;95262.13;;;4.46;89.27
62697;BME280;48761;42.680;23.312;2023-03-01T07:53:31;95291.78;;;4.74;88.59
62697;BME280;48761;42.680;23.312;2023-03-01T07:56:12;95317.63;;;4.87;87.90
62697;BME280;48761;42.680;23.312;2023-03-01T07:58:39;95291.00;;;4.93;88.05
62697;BME280;48761;42.680;23.312;2023-03-01T08:01:08;95264.31;;;4.80;86.98
62697;BME280;48761;42.680;23.312;2023-03-01T08:03:35;95308.97;;;5.06;86.73
62697;BME280;48761;42.680;23.312;2023-03-01T08:06:03;95300.63;;;5.16;86.26
62697;BME280;48761;42.680;23.312;2023-03-01T08:08:30;95277.28;;;5.07;86.17
62697;BME280;48761;42.680;23.312;2023-03-01T08:11:00;95264.72;;;4.91;86.47
62697;BME280;48761;42.680;23.312;2023-03-01T08:13:27;95288.69;;;5.08;86.06
62697;BME280;48761;42.680;23.312;2023-03-01T08:15:53;95287.91;;;5.06;86.67
62697;BME280;48761;42.680;23.312;2023-03-01T08:18:20;95294.78;;;5.08;86.30
62697;BME280;48761;42.680;23.312;2023-03-01T08:20:46;95269.56;;;5.02;86.03
62697;BME280;48761;42.680;23.312;2023-03-01T08:23:13;95283.53;;;5.04;85.96
62697;BME280;48761;42.680;23.312;2023-03-01T08:25:39;95290.16;;;5.15;86.01
62697;BME280;48761;42.680;23.312;2023-03-01T08:28:05;95287.84;;;5.28;85.24
62697;BME280;48761;42.680;23.312;2023-03-01T08:30:31;95290.19;;;5.36;85.39
62697;BME280;48761;42.680;23.312;2023-03-01T08:32:57;95291.22;;;5.32;85.06
62697;BME280;48761;42.680;23.312;2023-03-01T08:35:23;95290.97;;;5.38;85.25
62697;BME280;48761;42.680;23.312;2023-03-01T08:37:49;95276.72;;;5.42;84.43
62697;BME280;48761;42.680;23.312;2023-03-01T08:40:15;95285.69;;;5.38;84.12
62697;BME280;48761;42.680;23.312;2023-03-01T08:42:41;95279.09;;;5.27;84.05
62697;BME280;48761;42.680;23.312;2023-03-01T08:45:08;95283.97;;;5.37;83.17
62697;BME280;48761;42.680;23.312;2023-03-01T08:47:35;95301.09;;;5.47;83.23
62697;BME280;48761;42.680;23.312;2023-03-01T08:50:01;95286.84;;;5.52;83.24
62697;BME280;48761;42.680;23.312;2023-03-01T08:52:27;95258.91;;;5.47;81.90
62697;BME280;48761;42.680;23.312;2023-03-01T08:54:53;95268.13;;;5.37;82.06
62697;BME280;48761;42.680;23.312;2023-03-01T08:57:19;95286.72;;;5.55;81.74
62697;BME280;48761;42.680;23.312;2023-03-01T08:59:45;95294.66;;;5.55;81.67
62697;BME280;48761;42.680;23.312;2023-03-01T09:02:13;95295.56;;;5.54;81.38
62697;BME280;48761;42.680;23.312;2023-03-01T09:04:39;95280.13;;;5.65;81.05
62697;BME280;48761;42.680;23.312;2023-03-01T09:07:06;95278.22;;;5.69;79.89
62697;BME280;48761;42.680;23.312;2023-03-01T09:09:32;95253.56;;;5.49;80.61
62697;BME280;48761;42.680;23.312;2023-03-01T09:11:58;95293.97;;;5.70;80.10
62697;BME280;48761;42.680;23.312;2023-03-01T09:14:24;95302.69;;;5.72;80.14
62697;BME280;48761;42.680;23.312;2023-03-01T09:16:50;95280.13;;;5.65;79.71
62697;BME280;48761;42.680;23.312;2023-03-01T09:19:16;95302.59;;;5.74;79.73
62697;BME280;48761;42.680;23.312;2023-03-01T09:21:42;95278.41;;;5.64;80.50
62697;BME280;48761;42.680;23.312;2023-03-01T09:24:13;95289.09;;;5.82;80.07
62697;BME280;48761;42.680;23.312;2023-03-01T09:26:39;95249.13;;;5.70;79.55
62697;BME280;48761;42.680;23.312;2023-03-01T09:29:05;95276.84;;;6.00;79.54
62697;BME280;48761;42.680;23.312;2023-03-01T09:31:31;95256.13;;;5.71;79.53
62697;BME280;48761;42.680;23.312;2023-03-01T09:33:57;95259.69;;;5.70;79.42
62697;BME280;48761;42.680;23.312;2023-03-01T09:36:24;95262.25;;;5.72;79.53
62697;BME280;48761;42.680;23.312;2023-03-01T09:38:50;95248.63;;;5.62;79.63
62697;BME280;48761;42.680;23.312;2023-03-01T09:41:24;95275.41;;;5.93;79.85
62697;BME280;48761;42.680;23.312;2023-03-01T09:43:55;95289.59;;;5.90;79.42
62697;BME280;48761;42.680;23.312;2023-03-01T09:46:24;95280.50;;;5.77;79.88
62697;BME280;48761;42.680;23.312;2023-03-01T09:48:55;95274.13;;;5.82;79.89
62697;BME280;48761;42.680;23.312;2023-03-01T09:51:33;95278.72;;;5.77;79.36
62697;BME280;48761;42.680;23.312;2023-03-01T09:54:04;95254.00;;;5.80;79.90
62697;BME280;48761;42.680;23.312;2023-03-01T09:56:39;95262.56;;;5.85;79.61
62697;BME280;48761;42.680;23.312;2023-03-01T10:01:58;95245.38;;;6.16;79.24
62697;BME280;48761;42.680;23.312;2023-03-01T10:09:41;95249.22;;;6.09;79.03
62697;BME280;48761;42.680;23.312;2023-03-01T10:12:11;95229.66;;;5.94;78.61
62697;BME280;48761;42.680;23.312;2023-03-01T10:17:57;95243.66;;;5.94;79.86
62697;BME280;48761;42.680;23.312;2023-03-01T10:20:41;95233.09;;;6.15;79.43
62697;BME280;48761;42.680;23.312;2023-03-01T10:23:09;95256.47;;;6.04;80.05
62697;BME280;48761;42.680;23.312;2023-03-01T10:26:04;95238.66;;;6.09;79.60
62697;BME280;48761;42.680;23.312;2023-03-01T10:31:24;95225.31;;;6.12;79.27
62697;BME280;48761;42.680;23.312;2023-03-01T10:33:55;95225.25;;;6.33;78.35
62697;BME280;48761;42.680;23.312;2023-03-01T10:36:23;95227.59;;;6.20;78.87
62697;BME280;48761;42.680;23.312;2023-03-01T10:38:56;95219.81;;;6.36;78.25
62697;BME280;48761;42.680;23.312;2023-03-01T10:41:24;95218.34;;;5.90;78.69
62697;BME280;48761;42.680;23.312;2023-03-01T10:43:58;95223.50;;;5.93;79.84
62697;BME280;48761;42.680;23.312;2023-03-01T10:46:35;95171.84;;;5.88;79.17
62697;BME280;48761;42.680;23.312;2023-03-01T10:51:36;95221.59;;;6.73;77.56
62697;BME280;48761;42.680;23.312;2023-03-01T10:54:03;95179.75;;;6.46;77.30
62697;BME280;48761;42.680;23.312;2023-03-01T10:56:46;95204.94;;;6.53;76.95
62697;BME280;48761;42.680;23.312;2023-03-01T10:59:29;95213.03;;;6.68;76.98
62697;BME280;48761;42.680;23.312;2023-03-01T11:02:17;95222.78;;;6.48;76.66
62697;BME280;48761;42.680;23.312;2023-03-01T11:07:23;95214.09;;;7.01;76.01
62697;BME280;48761;42.680;23.312;2023-03-01T11:09:49;95171.16;;;6.78;74.89
62697;BME280;48761;42.680;23.312;2023-03-01T11:12:16;95165.81;;;6.61;75.30
62697;BME280;48761;42.680;23.312;2023-03-01T11:14:55;95221.00;;;7.03;75.76
62697;BME280;48761;42.680;23.312;2023-03-01T11:17:28;95224.69;;;6.64;76.39
62697;BME280;48761;42.680;23.312;2023-03-01T11:22:53;95163.41;;;6.37;76.10
62697;BME280;48761;42.680;23.312;2023-03-01T11:25:24;95215.19;;;6.42;77.36
62697;BME280;48761;42.680;23.312;2023-03-01T11:27:51;95209.31;;;6.54;77.54
62697;BME280;48761;42.680;23.312;2023-03-01T11:33:16;95212.13;;;6.69;75.94
62697;BME280;48761;42.680;23.312;2023-03-01T11:36:03;95200.31;;;6.76;75.78
62697;BME280;48761;42.680;23.312;2023-03-01T11:38:34;95188.34;;;6.69;75.53
62697;BME280;48761;42.680;23.312;2023-03-01T11:41:14;95198.19;;;6.65;75.76
62697;BME280;48761;42.680;23.312;2023-03-01T11:44:01;95180.09;;;6.75;75.83
62697;BME280;48761;42.680;23.312;2023-03-01T11:49:31;95177.44;;;6.75;76.45
62697;BME280;48761;42.680;23.312;2023-03-01T11:54:49;95137.22;;;6.33;76.91
62697;BME280;48761;42.680;23.312;2023-03-01T11:57:42;95173.25;;;6.53;77.50
62697;BME280;48761;42.680;23.312;2023-03-01T12:03:11;95176.97;;;6.49;78.04
62697;BME280;48761;42.680;23.312;2023-03-01T12:05:57;95180.06;;;6.57;77.94
62697;BME280;48761;42.680;23.312;2023-03-01T12:22:13;95162.22;;;6.80;77.25
62697;BME280;48761;42.680;23.312;2023-03-01T12:24:55;95163.47;;;6.91;76.87
62697;BME280;48761;42.680;23.312;2023-03-01T12:33:22;95144.19;;;7.06;75.47
62697;BME280;48761;42.680;23.312;2023-03-01T12:35:58;95113.63;;;7.01;74.96
62697;BME280;48761;42.680;23.312;2023-03-01T12:43:58;95139.88;;;7.39;74.59
62697;BME280;48761;42.680;23.312;2023-03-01T12:49:16;95143.81;;;7.14;75.75
62697;BME280;48761;42.680;23.312;2023-03-01T12:52:16;95150.00;;;7.13;75.56
62697;BME280;48761;42.680;23.312;2023-03-01T12:54:45;95148.63;;;7.06;75.19
62697;BME280;48761;42.680;23.312;2023-03-01T13:03:06;95141.69;;;7.21;75.49
62697;BME280;48761;42.680;23.312;2023-03-01T13:06:06;95079.00;;;6.89;75.36
62697;BME280;48761;42.680;23.312;2023-03-01T13:08:41;95147.56;;;7.44;75.18
62697;BME280;48761;42.680;23.312;2023-03-01T13:11:21;95143.13;;;7.45;74.84
62697;BME280;48761;42.680;23.312;2023-03-01T13:13:51;95140.69;;;7.58;74.72
62697;BME280;48761;42.680;23.312;2023-03-01T13:19:32;95147.13;;;7.18;74.95
62697;BME280;48761;42.680;23.312;2023-03-01T13:21:59;95155.25;;;6.97;75.60
62697;BME280;48761;42.680;23.312;2023-03-01T13:24:35;95138.03;;;7.06;75.46
62697;BME280;48761;42.680;23.312;2023-03-01T13:29:55;95155.06;;;7.18;75.22
62697;BME280;48761;42.680;23.312;2023-03-01T13:35:02;95147.94;;;7.02;75.95
62697;BME280;48761;42.680;23.312;2023-03-01T13:37:31;95125.56;;;6.74;75.99
62697;BME280;48761;42.680;23.312;2023-03-01T13:40:57;95149.88;;;6.81;76.59
62697;BME280;48761;42.680;23.312;2023-03-01T13:43:29;95150.25;;;6.91;76.58
62697;BME280;48761;42.680;23.312;2023-03-01T13:45:57;95150.72;;;6.81;76.39
62697;BME280;48761;42.680;23.312;2023-03-01T13:48:33;95145.31;;;6.84;75.96
62697;BME280;48761;42.680;23.312;2023-03-01T13:51:02;95144.97;;;6.91;75.29
62697;BME280;48761;42.680;23.312;2023-03-01T13:53:34;95094.78;;;6.73;75.51
62697;BME280;48761;42.680;23.312;2023-03-01T13:56:07;95137.66;;;6.96;75.29
62697;BME280;48761;42.680;23.312;2023-03-01T13:58:50;95139.38;;;7.15;75.12
62697;BME280;48761;42.680;23.312;2023-03-01T14:01:25;95137.19;;;7.05;75.83
62697;BME280;48761;42.680;23.312;2023-03-01T14:03:52;95127.25;;;6.93;76.05
62697;BME280;48761;42.680;23.312;2023-03-01T14:06:26;95138.28;;;6.83;76.52
62697;BME280;48761;42.680;23.312;2023-03-01T14:09:08;95132.22;;;6.64;76.84
62697;BME280;48761;42.680;23.312;2023-03-01T14:16:54;95140.16;;;6.81;76.61
62697;BME280;48761;42.680;23.312;2023-03-01T14:19:26;95140.16;;;6.99;76.32
62697;BME280;48761;42.680;23.312;2023-03-01T14:24:46;95130.44;;;6.82;77.57
62697;BME280;48761;42.680;23.312;2023-03-01T14:27:13;95139.25;;;6.65;78.01
62697;BME280;48761;42.680;23.312;2023-03-01T14:29:40;95122.81;;;6.58;78.27
62697;BME280;48761;42.680;23.312;2023-03-01T14:32:18;95102.53;;;6.58;78.37
62697;BME280;48761;42.680;23.312;2023-03-01T14:34:47;95124.94;;;6.69;78.35
62697;BME280;48761;42.680;23.312;2023-03-01T14:37:23;95095.88;;;6.51;78.38
62697;BME280;48761;42.680;23.312;2023-03-01T14:39:50;95126.94;;;6.64;79.11